createdAt,value
2022-08-22T00:02:11.306Z,99778.34
2022-08-22T00:02:48.678Z,99791.94
2022-08-22T00:05:43.849Z,99759.13
2022-08-22T00:09:07.773Z,99732.50
2022-08-22T00:12:35.920Z,99775.28
2022-08-22T00:16:01.378Z,99798.75
2022-08-22T00:19:32.531Z,99804.94
2022-08-22T00:22:41.407Z,99805.44
2022-08-22T00:26:04.507Z,99779.31
2022-08-22T00:29:18.954Z,99773.38
2022-08-22T00:32:46.692Z,99737.28
2022-08-22T00:36:08.957Z,99770.03
2022-08-22T00:39:27.160Z,99761.53
2022-08-22T00:42:48.563Z,99781.41
2022-08-22T00:46:21.620Z,99777.38
2022-08-22T00:49:36.695Z,99723.53
2022-08-22T00:52:51.667Z,99734.34
2022-08-22T00:56:05.533Z,99735.38
2022-08-22T00:59:47.600Z,99727.03
2022-08-22T01:03:20.160Z,99717.47
2022-08-22T01:06:41.964Z,99713.16
2022-08-22T01:10:09.208Z,99715.56
2022-08-22T01:13:23.758Z,99719.06
2022-08-22T01:17:01.741Z,99708.84
2022-08-22T01:20:40.125Z,99696.03
2022-08-22T01:24:01.902Z,99681.66
2022-08-22T01:27:24.527Z,99661.41
2022-08-22T01:31:07.531Z,99616.47
2022-08-22T01:34:24.257Z,99630.63
2022-08-22T01:37:34.748Z,99649.59
2022-08-22T01:41:17.991Z,99629.13
2022-08-22T01:44:36.776Z,99580.38
2022-08-22T01:48:05.529Z,99650.81
2022-08-22T01:51:53.156Z,99666.16
2022-08-22T01:55:10.588Z,99686.28
2022-08-22T01:58:21.210Z,99678.72
2022-08-22T02:01:37.672Z,99691.16
2022-08-22T02:05:11.619Z,99680.06
2022-08-22T02:08:16.148Z,99664.09
2022-08-22T02:11:52.070Z,99626.69
2022-08-22T02:15:32.122Z,99565.00
2022-08-22T02:19:05.026Z,99534.63
2022-08-22T02:22:36.591Z,99564.88
2022-08-22T02:25:53.880Z,99522.13
2022-08-22T02:29:17.784Z,99506.88
2022-08-22T02:32:44.428Z,99515.47
2022-08-22T02:35:57.671Z,99523.16
2022-08-22T02:39:14.565Z,99545.63
2022-08-22T02:42:28.369Z,99539.22
2022-08-22T02:46:00.548Z,99524.25
2022-08-22T02:49:22.519Z,99527.47
2022-08-22T02:52:52.231Z,99529.41
2022-08-22T02:56:23.342Z,99518.41
2022-08-22T02:59:59.709Z,99510.69
2022-08-22T03:03:22.167Z,99515.31
2022-08-22T03:06:45.129Z,99532.91
2022-08-22T03:10:11.122Z,99523.91
2022-08-22T03:13:27.135Z,99549.25
2022-08-22T03:16:47.264Z,99540.75
2022-08-22T03:20:16.444Z,99576.94
2022-08-22T03:23:32.576Z,99583.63
2022-08-22T03:26:48.063Z,99550.78
2022-08-22T03:29:58.143Z,99571.28
2022-08-22T03:33:17.098Z,99551.53
2022-08-22T03:36:29.843Z,99524.25
2022-08-22T03:40:01.267Z,99544.13
2022-08-22T03:43:22.915Z,99535.09
2022-08-22T03:46:35.159Z,99558.16
2022-08-22T03:50:06.874Z,99562.34
2022-08-22T03:53:59.324Z,99575.63
2022-08-22T03:57:24.738Z,99516.09
2022-08-22T04:01:01.096Z,99545.75
2022-08-22T04:04:34.531Z,99540.41
2022-08-22T04:07:47.617Z,99539.28
2022-08-22T04:11:08.547Z,99507.38
2022-08-22T04:14:40.712Z,99500.91
2022-08-22T04:17:58.375Z,99488.41
2022-08-22T04:21:21.771Z,99473.25
2022-08-22T04:24:52.459Z,99459.84
2022-08-22T04:28:10.295Z,99467.72
2022-08-22T04:31:19.937Z,99469.41
2022-08-22T04:34:43.115Z,99453.91
2022-08-22T04:38:17.912Z,99446.81
2022-08-22T04:41:27.286Z,99431.56
2022-08-22T04:45:09.574Z,99392.28
2022-08-22T04:48:33.037Z,99376.16
2022-08-22T04:51:48.544Z,99361.56
2022-08-22T04:54:56.262Z,99376.16
2022-08-22T04:58:34.106Z,99360.06
2022-08-22T05:02:00.003Z,99317.66
2022-08-22T05:05:13.114Z,99300.31
2022-08-22T05:08:26.186Z,99283.72
2022-08-22T05:11:34.377Z,99217.63
2022-08-22T05:14:48.508Z,99309.59
2022-08-22T05:17:55.628Z,99490.97
2022-08-22T05:21:03.417Z,99459.72
2022-08-22T05:24:28.823Z,99429.94
2022-08-22T05:27:41.214Z,99474.91
2022-08-22T05:30:48.962Z,99439.56
2022-08-22T05:34:00.636Z,99334.75
2022-08-22T05:37:25.840Z,99400.97
2022-08-22T05:40:32.765Z,99378.28
2022-08-22T05:43:44.497Z,99387.81
2022-08-22T05:47:02.076Z,99374.22
2022-08-22T05:50:26.571Z,99421.25
2022-08-22T05:53:33.781Z,99411.91
2022-08-22T05:56:48.089Z,99399.69
2022-08-22T06:00:04.831Z,99398.59
2022-08-22T06:03:35.171Z,99368.06
2022-08-22T06:06:59.839Z,99287.13
2022-08-22T06:10:09.304Z,99329.69
2022-08-22T06:13:24.444Z,99287.19
2022-08-22T06:16:48.726Z,99294.22
2022-08-22T06:19:55.842Z,99313.00
2022-08-22T06:23:03.408Z,99278.69
2022-08-22T06:26:20.668Z,99258.06
2022-08-22T06:29:35.686Z,99234.84
2022-08-22T06:32:59.977Z,99256.91
2022-08-22T06:36:32.606Z,99241.47
2022-08-22T06:39:45.092Z,99263.75
2022-08-22T06:42:53.127Z,99164.56
2022-08-22T06:45:58.481Z,99249.59
2022-08-22T06:49:05.765Z,99213.22
2022-08-22T06:52:22.172Z,99213.09
2022-08-22T06:55:29.730Z,99251.44
2022-08-22T06:58:47.131Z,99275.69
2022-08-22T07:02:30.928Z,99266.72
2022-08-22T07:05:41.804Z,99204.16
2022-08-22T07:08:46.976Z,99147.81
2022-08-22T07:11:53.809Z,99175.72
2022-08-22T07:15:19.872Z,99169.72
2022-08-22T07:18:26.875Z,99193.63
2022-08-22T07:21:43.669Z,99197.19
2022-08-22T07:24:55.083Z,99167.38
2022-08-22T07:28:36.668Z,99181.91
2022-08-22T07:31:57.747Z,99189.13
2022-08-22T07:35:28.224Z,99223.16
2022-08-22T07:38:36.084Z,99199.94
2022-08-22T07:41:53.885Z,99188.84
2022-08-22T07:44:58.547Z,99203.19
2022-08-22T07:48:25.477Z,99187.78
2022-08-22T07:51:38.448Z,99214.34
2022-08-22T07:54:52.203Z,99203.59
2022-08-22T07:58:05.065Z,99182.22
2022-08-22T08:01:13.752Z,99172.72
2022-08-22T08:04:25.541Z,99166.69
2022-08-22T08:07:31.185Z,99146.94
2022-08-22T08:10:43.061Z,99146.53
2022-08-22T08:13:53.395Z,99126.91
2022-08-22T08:17:06.943Z,99083.09
2022-08-22T08:20:16.492Z,99122.88
2022-08-22T08:23:23.668Z,99145.00
2022-08-22T08:27:07.356Z,99135.59
2022-08-22T08:30:23.239Z,99094.59
2022-08-22T08:33:30.281Z,99111.91
2022-08-22T08:36:40.190Z,99099.09
2022-08-22T08:39:56.370Z,99090.81
2022-08-22T08:43:29.186Z,99106.19
2022-08-22T08:46:40.018Z,99084.94
2022-08-22T08:50:22.301Z,99060.56
2022-08-22T08:53:47.464Z,99084.69
2022-08-22T08:57:25.489Z,99073.81
2022-08-22T09:00:45.738Z,99074.41
2022-08-22T09:04:15.295Z,99077.72
2022-08-22T09:07:58.067Z,99072.72
2022-08-22T09:15:14.405Z,99042.88
2022-08-22T09:18:33.004Z,99058.78
2022-08-22T09:22:06.469Z,99051.25
2022-08-22T09:25:23.552Z,99040.06
2022-08-22T09:28:55.947Z,99041.31
2022-08-22T09:32:29.415Z,99027.25
2022-08-22T09:35:57.906Z,99058.53
2022-08-22T09:39:08.847Z,99052.44
2022-08-22T09:42:25.539Z,99038.59
2022-08-22T09:45:39.135Z,99043.47
2022-08-22T09:49:21.812Z,99037.97
2022-08-22T09:52:51.053Z,99038.69
2022-08-22T09:56:11.577Z,99016.09
2022-08-22T09:59:58.127Z,98997.28
2022-08-22T10:03:55.423Z,98915.97
2022-08-22T10:07:23.558Z,99009.03
2022-08-22T10:11:00.912Z,99004.09
2022-08-22T10:14:12.070Z,99018.81
2022-08-22T10:17:34.132Z,98991.84
2022-08-22T10:21:04.928Z,98986.53
2022-08-22T10:24:34.218Z,98985.47
2022-08-22T10:28:10.355Z,98983.13
2022-08-22T10:31:58.496Z,98979.56
2022-08-22T11:13:15.712Z,98914.13
2022-08-22T11:16:31.316Z,98955.56
2022-08-22T11:20:03.054Z,98945.22
2022-08-22T11:23:51.052Z,98898.34
2022-08-22T11:27:20.807Z,98924.22
2022-08-22T11:30:53.578Z,98890.13
2022-08-22T11:34:10.573Z,98902.28
2022-08-22T11:37:42.962Z,98882.56
2022-08-22T11:46:33.125Z,98877.56
2022-08-22T11:49:52.072Z,98867.28
2022-08-22T11:53:01.458Z,98886.63
2022-08-22T11:56:37.453Z,98875.59
2022-08-22T11:59:54.824Z,98854.84
2022-08-22T12:03:26.486Z,98851.41
2022-08-22T12:06:49.699Z,98845.19
2022-08-22T12:09:56.546Z,98823.47
2022-08-22T12:13:10.042Z,98799.56
2022-08-22T12:16:37.986Z,98826.00
2022-08-22T12:20:14.599Z,98833.88
2022-08-22T12:23:54.453Z,98813.34
2022-08-22T12:27:02.582Z,98802.63
2022-08-22T12:30:57.049Z,98777.81
2022-08-22T12:34:43.260Z,98750.03
2022-08-22T12:38:28.692Z,98747.81
2022-08-22T12:41:49.809Z,98720.28
2022-08-22T12:44:54.909Z,98738.56
2022-08-22T12:48:20.505Z,98737.38
2022-08-22T12:52:15.284Z,98736.56
2022-08-22T12:55:49.605Z,98716.16
2022-08-22T12:59:30.678Z,98709.91
2022-08-22T13:02:40.490Z,98695.59
2022-08-22T13:05:56.254Z,98701.00
2022-08-22T13:09:19.690Z,98693.72
2022-08-22T13:12:40.020Z,98705.63
2022-08-22T13:15:56.930Z,98696.47
2022-08-22T13:19:08.043Z,98689.94
2022-08-22T13:22:27.308Z,98683.38
2022-08-22T13:26:32.016Z,98692.16
2022-08-22T13:29:48.575Z,98694.88
2022-08-22T13:32:57.829Z,98674.28
2022-08-22T13:36:10.946Z,98693.34
2022-08-22T13:39:19.686Z,98669.75
2022-08-22T13:42:30.017Z,98678.94
2022-08-22T13:45:38.211Z,98669.25
2022-08-22T13:48:56.701Z,98664.19
2022-08-22T13:52:30.030Z,98676.81
2022-08-22T13:55:56.651Z,98681.94
2022-08-22T13:59:08.146Z,98690.72
2022-08-22T14:02:34.604Z,98689.94
2022-08-22T14:05:53.108Z,98660.47
2022-08-22T14:09:08.537Z,98660.72
2022-08-22T14:12:19.388Z,98670.81
2022-08-22T14:15:33.916Z,98640.88
2022-08-22T14:18:55.612Z,98637.19
2022-08-22T14:22:05.561Z,98656.97
2022-08-22T14:25:34.829Z,98647.94
2022-08-22T14:28:39.745Z,98625.22
2022-08-22T14:31:58.238Z,98646.47
2022-08-22T14:35:21.481Z,98622.44
2022-08-22T14:38:33.995Z,98620.38
2022-08-22T14:41:59.399Z,98574.97
2022-08-22T14:45:16.778Z,98610.09
2022-08-22T14:48:30.283Z,98605.03
2022-08-22T14:51:37.775Z,98590.47
2022-08-22T14:54:43.226Z,98594.31
2022-08-22T14:58:27.886Z,98571.34
2022-08-22T15:01:36.540Z,98600.50
2022-08-22T15:04:51.251Z,98597.31
2022-08-22T15:08:02.198Z,98581.28
2022-08-22T15:11:26.101Z,98590.94
2022-08-22T15:14:53.722Z,98578.91
2022-08-22T15:17:58.388Z,98568.56
2022-08-22T15:21:13.234Z,98550.84
2022-08-22T15:24:18.371Z,98560.72
2022-08-22T15:27:24.389Z,98568.28
2022-08-22T15:30:46.153Z,98569.44
2022-08-22T15:33:51.832Z,98582.13
2022-08-22T15:37:19.559Z,98573.88
2022-08-22T15:40:36.612Z,98588.19
2022-08-22T15:43:50.438Z,98574.34
2022-08-22T15:46:55.172Z,98583.22
2022-08-22T15:50:15.263Z,98581.19
2022-08-22T15:53:45.434Z,98591.91
2022-08-22T15:57:11.408Z,98588.38
2022-08-22T16:00:43.811Z,98578.28
2022-08-22T16:03:55.545Z,98580.00
2022-08-22T16:07:02.378Z,98567.09
2022-08-22T16:10:22.127Z,98579.13
2022-08-22T16:13:32.983Z,98574.38
2022-08-22T16:16:56.548Z,98554.38
2022-08-22T16:20:19.591Z,98578.09
2022-08-22T16:23:25.347Z,98553.16
2022-08-22T16:26:32.576Z,98577.22
2022-08-22T16:29:42.958Z,98578.59
2022-08-22T16:32:57.596Z,98580.00
2022-08-22T16:36:37.323Z,98583.63
2022-08-22T16:39:48.324Z,98577.78
2022-08-22T16:43:14.632Z,98589.25
2022-08-22T16:46:36.404Z,98584.91
2022-08-22T16:50:01.507Z,98591.66
2022-08-22T16:53:33.787Z,98600.06
2022-08-22T16:56:56.436Z,98583.06
2022-08-22T17:00:46.524Z,98605.63
2022-08-22T17:04:05.817Z,98614.13
2022-08-22T17:07:34.248Z,98585.47
2022-08-22T17:10:54.124Z,98600.75
2022-08-22T17:14:21.912Z,98578.06
2022-08-22T17:18:16.134Z,98576.50
2022-08-22T17:21:50.733Z,98570.19
2022-08-22T17:25:35.169Z,98582.97
2022-08-22T17:29:22.603Z,98591.16
2022-08-22T17:32:57.204Z,98593.34
2022-08-22T17:36:26.669Z,98586.13
2022-08-22T17:40:03.501Z,98588.88
2022-08-22T17:43:23.003Z,98593.25
2022-08-22T17:46:42.577Z,98591.06
2022-08-22T17:49:58.074Z,98525.75
2022-08-22T17:53:25.914Z,98573.97
2022-08-22T17:57:07.665Z,98557.38
2022-08-22T18:00:21.093Z,98582.88
2022-08-22T18:03:38.599Z,98512.22
2022-08-22T18:06:56.263Z,98582.06
2022-08-22T18:10:24.417Z,98583.03
2022-08-22T18:13:37.577Z,98582.81
2022-08-22T18:16:52.983Z,98576.72
2022-08-22T18:20:25.196Z,98578.41
2022-08-22T18:23:45.611Z,98540.06
2022-08-22T18:27:41.963Z,98568.69
2022-08-22T18:30:56.339Z,98558.25
2022-08-22T18:34:51.483Z,98579.66
2022-08-22T18:38:20.154Z,98566.25
2022-08-22T18:41:48.843Z,98558.28
2022-08-22T18:44:53.712Z,98545.38
2022-08-22T18:47:58.734Z,98560.72
2022-08-22T18:51:25.783Z,98574.81
2022-08-22T18:54:55.457Z,98556.56
2022-08-22T18:58:14.407Z,98546.09
2022-08-22T19:01:21.996Z,98556.84
2022-08-22T19:04:39.181Z,98555.34
2022-08-22T19:08:25.073Z,98557.91
2022-08-22T19:11:54.052Z,98551.06
2022-08-22T19:15:28.649Z,98536.81
2022-08-22T19:19:18.199Z,98545.56
2022-08-22T19:22:30.688Z,98534.69
2022-08-22T19:25:35.589Z,98499.25
2022-08-22T19:28:40.353Z,98523.34
2022-08-22T19:31:47.375Z,98544.06
2022-08-22T19:35:21.103Z,98538.69
2022-08-22T19:38:57.272Z,98554.06
2022-08-22T19:42:02.601Z,98513.81
2022-08-22T19:45:29.721Z,98496.16
2022-08-22T19:49:04.848Z,98535.53
2022-08-22T19:52:26.070Z,98527.31
2022-08-22T19:55:40.626Z,98542.94
2022-08-22T19:59:17.532Z,98521.03
2022-08-22T20:02:36.553Z,98533.72
2022-08-22T20:05:51.758Z,98536.66
2022-08-22T20:09:39.165Z,98547.16
2022-08-22T20:13:07.804Z,98534.31
2022-08-22T20:16:44.869Z,98540.69
2022-08-22T20:23:31.010Z,98528.03
2022-08-22T20:26:47.469Z,98517.16
2022-08-22T20:30:25.653Z,98513.97
2022-08-22T20:33:39.630Z,98518.59
2022-08-22T20:36:52.743Z,98511.81
2022-08-22T20:40:07.554Z,98527.75
2022-08-22T20:43:42.191Z,98532.00
2022-08-22T20:47:02.247Z,98491.34
2022-08-22T20:50:12.809Z,98529.31
2022-08-22T20:53:23.646Z,98496.31
2022-08-22T20:56:53.129Z,98495.78
2022-08-22T21:00:07.436Z,98527.66
2022-08-22T21:03:41.697Z,98522.31
2022-08-22T21:06:46.218Z,98516.44
2022-08-22T21:10:36.306Z,98508.84
2022-08-22T21:13:41.057Z,98507.63
2022-08-22T21:16:45.705Z,98488.75
2022-08-22T21:19:50.430Z,98493.50
2022-08-22T21:22:56.401Z,98491.03
2022-08-22T21:26:08.703Z,98514.91
2022-08-22T21:29:16.121Z,98519.78
2022-08-22T21:32:26.634Z,98514.09
2022-08-22T21:35:33.937Z,98501.31
2022-08-22T21:38:39.756Z,98488.66
2022-08-22T21:41:50.969Z,98506.97
2022-08-22T21:45:02.129Z,98486.84
2022-08-22T21:48:35.311Z,98496.53
2022-08-22T21:51:47.235Z,98480.03
2022-08-22T21:54:52.120Z,98492.81
2022-08-22T21:58:34.141Z,98456.38
2022-08-22T22:01:42.680Z,98493.81
2022-08-22T22:04:50.210Z,98490.50
2022-08-22T22:07:54.655Z,98487.31
2022-08-22T22:11:03.091Z,98487.22
2022-08-22T22:14:10.984Z,98510.88
2022-08-22T22:17:15.430Z,98511.22
2022-08-22T22:20:22.727Z,98507.81
2022-08-22T22:23:27.678Z,98496.38
2022-08-22T22:26:33.178Z,98511.75
2022-08-22T22:29:37.925Z,98466.84
2022-08-22T22:32:42.985Z,98480.91
2022-08-22T22:35:53.476Z,98498.28
2022-08-22T22:38:58.440Z,98509.06
2022-08-22T22:42:04.032Z,98503.38
2022-08-22T22:45:08.955Z,98506.84
2022-08-22T22:48:24.329Z,98506.41
2022-08-22T22:51:29.192Z,98513.44
2022-08-22T22:54:34.227Z,98487.22
2022-08-22T22:57:41.402Z,98497.97
2022-08-22T23:00:47.570Z,98515.69
2022-08-22T23:03:58.149Z,98516.09
2022-08-22T23:07:03.538Z,98513.00
2022-08-22T23:10:10.683Z,98509.69
2022-08-22T23:13:15.664Z,98507.38
2022-08-22T23:16:22.900Z,98524.84
2022-08-22T23:19:29.944Z,98527.63
2022-08-22T23:22:35.125Z,98535.72
2022-08-22T23:25:39.917Z,98536.13
2022-08-22T23:28:45.123Z,98548.38
2022-08-22T23:31:55.844Z,98516.41
2022-08-22T23:35:00.683Z,98527.38
2022-08-22T23:38:07.416Z,98539.97
2022-08-22T23:41:13.590Z,98539.97
2022-08-22T23:44:21.232Z,98559.72
2022-08-22T23:47:26.042Z,98548.22
2022-08-22T23:50:30.645Z,98559.44
2022-08-22T23:53:35.349Z,98548.78
2022-08-22T23:56:51.656Z,98545.78
2022-08-22T23:59:57.732Z,98550.63
